Time;durP1;ratioP1;P1;durP2;ratioP2;P2;SDS_P1;SDS_P2;PMS_P1;PMS_P2;Temp;Humidity;BMP_temperature;BMP_pressure;BME280_temperature;BME280_humidity;BME280_pressure;Samples;Min_cycle;Max_cycle;Signal;HPM_P1;HPM_P2
2021/12/11 00:00:12;;;;;;;;;10.75;7.25;;;;;;;;5027846;28;49813;-72
2021/12/11 00:02:38;;;;;;;;;6.75;6.00;;;;;;;;5027634;28;49914;-67
2021/12/11 00:05:03;;;;;;;;;10.25;6.00;;;;;;;;5027712;28;49891;-68
2021/12/11 00:07:29;;;;;;;;;7.00;7.00;;;;;;;;5027366;28;49769;-67
2021/12/11 00:10:09;;;;;;;;;5.25;5.25;;;;;;;;5027314;28;49691;-67
2021/12/11 00:12:44;;;;;;;;;5.25;5.25;;;;;;;;5027576;28;49816;-67
2021/12/11 00:15:16;;;;;;;;;11.50;10.00;;;;;;;;5027583;28;49929;-66
2021/12/11 00:17:41;;;;;;;;;8.00;8.00;;;;;;;;5027322;28;49897;-67
2021/12/11 00:20:13;;;;;;;;;13.25;10.50;;;;;;;;5027611;28;49928;-66
2021/12/11 00:22:40;;;;;;;;;13.00;6.00;;;;;;;;5027289;28;49575;-67
2021/12/11 00:25:08;;;;;;;;;9.75;5.25;;;;;;;;5027579;28;49719;-67
2021/12/11 00:27:34;;;;;;;;;7.00;5.75;;;;;;;;5026929;28;49921;-67
2021/12/11 00:30:00;;;;;;;;;7.50;6.25;;;;;;;;5027023;28;49742;-73
2021/12/11 00:32:26;;;;;;;;;6.50;5.50;;;;;;;;5027374;28;49802;-72
2021/12/11 00:34:53;;;;;;;;;11.00;9.25;;;;;;;;5027397;28;49952;-72
2021/12/11 00:37:19;;;;;;;;;6.00;6.00;;;;;;;;5026598;28;50279;-71
2021/12/11 00:39:48;;;;;;;;;6.00;5.00;;;;;;;;5026992;28;50263;-69
2021/12/11 00:42:13;;;;;;;;;10.00;7.50;;;;;;;;5027147;28;49911;-67
2021/12/11 00:44:41;;;;;;;;;6.00;6.00;;;;;;;;5009302;28;49801;-66
2021/12/11 00:47:09;;;;;;;;;8.50;6.50;;;;;;;;5026777;28;49872;-67
2021/12/11 00:49:35;;;;;;;;;4.00;4.00;;;;;;;;5026749;28;49784;-68
2021/12/11 00:52:00;;;;;;;;;5.75;4.50;;;;;;;;5026658;28;49669;-67
2021/12/11 00:54:26;;;;;;;;;6.50;5.00;;;;;;;;5009161;28;49832;-70
2021/12/11 00:56:51;;;;;;;;;7.00;6.50;;;;;;;;5026610;28;50900;-70
2021/12/11 00:59:18;;;;;;;;;7.75;5.25;;;;;;;;5008902;28;49640;-72
2021/12/11 01:01:43;;;;;;;;;5.75;5.75;;;;;;;;5029842;28;49967;-73
2021/12/11 01:04:14;;;;;;;;;2.50;2.50;;;;;;;;5030273;28;49868;-72
2021/12/11 01:06:52;;;;;;;;;5.50;5.00;;;;;;;;5029475;28;49956;-73
2021/12/11 01:09:21;;;;;;;;;7.00;5.00;;;;;;;;5029550;28;49885;-67
2021/12/11 01:11:50;;;;;;;;;9.00;6.00;;;;;;;;5029867;28;49977;-67
2021/12/11 01:14:37;;;;;;;;;2.75;1.50;;;;;;;;5030006;28;49890;-67
2021/12/11 01:17:06;;;;;;;;;7.00;5.00;;;;;;;;5029776;28;50279;-67
2021/12/11 01:19:37;;;;;;;;;6.00;6.00;;;;;;;;5029732;28;49760;-67
2021/12/11 01:22:10;;;;;;;;;4.00;4.00;;;;;;;;5029619;28;49810;-67
2021/12/11 01:24:42;;;;;;;;;9.00;5.00;;;;;;;;5029614;28;49992;-70
2021/12/11 01:27:09;;;;;;;;;8.00;5.50;;;;;;;;5028757;28;49900;-72
2021/12/11 01:29:34;;;;;;;;;4.00;2.75;;;;;;;;5029415;28;49801;-68
2021/12/11 01:31:59;;;;;;;;;3.00;3.00;;;;;;;;5029683;28;49666;-73
2021/12/11 01:34:26;;;;;;;;;5.00;5.00;;;;;;;;5029945;28;49538;-72
2021/12/11 01:36:52;;;;;;;;;3.00;3.00;;;;;;;;5028851;28;51023;-68
2021/12/11 01:39:19;;;;;;;;;5.00;3.00;;;;;;;;5029577;28;49780;-73
2021/12/11 01:41:45;;;;;;;;;5.50;4.50;;;;;;;;5011471;28;49781;-71
2021/12/11 01:44:13;;;;;;;;;3.50;3.00;;;;;;;;5029485;28;49656;-71
2021/12/11 01:46:39;;;;;;;;;4.25;3.00;;;;;;;;5029118;28;50809;-73
2021/12/11 01:49:08;;;;;;;;;5.75;3.50;;;;;;;;5029342;28;49762;-73
2021/12/11 01:51:36;;;;;;;;;3.00;3.00;;;;;;;;5029192;28;49703;-70
2021/12/11 01:54:02;;;;;;;;;8.25;5.00;;;;;;;;5029623;28;49699;-67
2021/12/11 01:56:28;;;;;;;;;2.50;2.50;;;;;;;;5029220;28;51295;-66
2021/12/11 01:59:00;;;;;;;;;2.50;2.50;;;;;;;;5029095;28;49759;-67
2021/12/11 02:01:34;;;;;;;;;6.00;3.50;;;;;;;;5029145;28;49860;-67
2021/12/11 02:04:01;;;;;;;;;5.75;4.50;;;;;;;;5029341;28;49844;-67
2021/12/11 02:06:30;;;;;;;;;5.00;3.00;;;;;;;;5028591;28;49935;-66
2021/12/11 02:08:56;;;;;;;;;2.50;2.00;;;;;;;;5029308;28;50122;-70
2021/12/11 02:11:23;;;;;;;;;4.00;4.00;;;;;;;;5028167;28;49774;-69
2021/12/11 02:13:53;;;;;;;;;13.00;6.75;;;;;;;;5029111;28;49737;-73
2021/12/11 02:16:33;;;;;;;;;4.00;3.50;;;;;;;;5029051;28;49876;-73
2021/12/11 02:19:08;;;;;;;;;4.00;2.75;;;;;;;;5029013;28;49980;-73
2021/12/11 02:21:35;;;;;;;;;6.25;6.25;;;;;;;;5028950;28;49769;-68
2021/12/11 02:24:06;;;;;;;;;4.50;2.00;;;;;;;;5029284;28;49675;-68
2021/12/11 02:26:32;;;;;;;;;11.50;7.75;;;;;;;;5028517;28;50526;-67
2021/12/11 02:29:09;;;;;;;;;4.50;2.00;;;;;;;;5028869;28;49749;-67
2021/12/11 02:31:39;;;;;;;;;6.00;5.50;;;;;;;;5029102;28;49831;-67
2021/12/11 02:34:09;;;;;;;;;5.75;4.50;;;;;;;;5028979;28;50120;-66
2021/12/11 02:36:40;;;;;;;;;8.25;6.50;;;;;;;;5028243;28;50807;-66
2021/12/11 02:39:16;;;;;;;;;9.75;5.50;;;;;;;;5028625;27;49666;-67
2021/12/11 02:41:41;;;;;;;;;6.50;3.25;;;;;;;;5028873;28;49687;-67
2021/12/11 02:44:10;;;;;;;;;5.00;3.75;;;;;;;;5029151;28;49850;-67
2021/12/11 02:46:45;;;;;;;;;3.00;3.00;;;;;;;;5028595;28;50721;-67
2021/12/11 02:49:37;;;;;;;;;7.00;7.00;;;;;;;;5028494;28;49775;-67
2021/12/11 02:52:14;;;;;;;;;4.50;2.25;;;;;;;;5030063;28;51500;-66
2021/12/11 02:54:45;;;;;;;;;3.00;2.50;;;;;;;;5028785;28;49634;-68
2021/12/11 02:57:14;;;;;;;;;6.75;2.00;;;;;;;;5028212;28;49645;-66
2021/12/11 02:59:43;;;;;;;;;3.25;3.25;;;;;;;;5028394;28;49647;-68
2021/12/11 03:02:11;;;;;;;;;5.00;3.50;;;;;;;;5028739;28;49725;-66
2021/12/11 03:04:43;;;;;;;;;6.00;4.50;;;;;;;;5028575;28;49785;-67
2021/12/11 03:07:12;;;;;;;;;5.50;3.00;;;;;;;;5028019;28;49832;-67
2021/12/11 03:09:39;;;;;;;;;2.00;2.00;;;;;;;;5028259;28;49938;-71
2021/12/11 03:12:07;;;;;;;;;2.50;2.50;;;;;;;;5028238;28;49679;-70
2021/12/11 03:14:33;;;;;;;;;5.25;3.50;;;;;;;;5028436;28;49691;-69
2021/12/11 03:16:58;;;;;;;;;4.50;2.50;;;;;;;;5028208;28;49894;-70
2021/12/11 03:19:25;;;;;;;;;7.25;1.75;;;;;;;;5028199;28;49906;-68
2021/12/11 03:21:52;;;;;;;;;10.00;3.25;;;;;;;;5028138;28;50049;-74
2021/12/11 03:24:18;;;;;;;;;4.50;4.50;;;;;;;;5027746;28;49929;-73
2021/12/11 03:26:44;;;;;;;;;3.75;3.75;;;;;;;;5027803;28;50622;-69
2021/12/11 03:29:10;;;;;;;;;5.50;3.50;;;;;;;;5028162;28;49854;-73
2021/12/11 03:31:37;;;;;;;;;5.00;2.75;;;;;;;;5028133;28;49852;-74
2021/12/11 03:34:04;;;;;;;;;4.75;4.75;;;;;;;;5028134;28;49644;-67
2021/12/11 03:36:32;;;;;;;;;5.00;3.00;;;;;;;;5027243;28;50685;-70
2021/12/11 03:39:00;;;;;;;;;2.75;1.50;;;;;;;;5027634;28;49781;-68
2021/12/11 03:41:26;;;;;;;;;4.00;3.00;;;;;;;;5027890;28;49723;-68
2021/12/11 03:43:52;;;;;;;;;3.00;2.50;;;;;;;;5027955;28;49981;-71
2021/12/11 03:46:18;;;;;;;;;5.75;5.25;;;;;;;;5027649;28;50894;-72
2021/12/11 03:48:45;;;;;;;;;3.25;3.25;;;;;;;;5027830;28;49634;-67
2021/12/11 03:51:12;;;;;;;;;5.25;4.00;;;;;;;;5027776;28;49669;-69
2021/12/11 03:53:37;;;;;;;;;4.75;3.25;;;;;;;;5027931;28;49486;-72
2021/12/11 03:56:05;;;;;;;;;6.00;5.25;;;;;;;;5027634;28;50400;-66
2021/12/11 03:58:31;;;;;;;;;5.00;5.00;;;;;;;;5027615;28;49752;-67
2021/12/11 04:00:59;;;;;;;;;5.50;2.00;;;;;;;;5027713;28;49862;-69
2021/12/11 04:03:25;;;;;;;;;5.50;3.50;;;;;;;;5027883;28;49746;-67
2021/12/11 04:05:51;;;;;;;;;3.25;3.25;;;;;;;;5027187;28;49659;-66
2021/12/11 04:08:18;;;;;;;;;5.25;4.00;;;;;;;;5027422;28;49809;-66
2021/12/11 04:10:43;;;;;;;;;6.75;4.25;;;;;;;;5027723;28;49665;-66
2021/12/11 04:13:09;;;;;;;;;3.50;1.75;;;;;;;;5027744;28;49785;-67
2021/12/11 04:15:36;;;;;;;;;5.50;4.50;;;;;;;;5026908;28;50471;-68
2021/12/11 04:18:01;;;;;;;;;7.25;3.25;;;;;;;;5027335;28;49779;-71
2021/12/11 04:20:27;;;;;;;;;3.25;3.25;;;;;;;;5027234;28;50197;-72
2021/12/11 04:22:53;;;;;;;;;5.00;5.00;;;;;;;;5027516;28;49644;-67
2021/12/11 04:25:20;;;;;;;;;2.00;2.00;;;;;;;;5027264;28;50022;-68
2021/12/11 04:27:45;;;;;;;;;6.25;6.00;;;;;;;;5027241;28;49836;-67
2021/12/11 04:30:12;;;;;;;;;3.50;3.50;;;;;;;;5030121;28;49730;-67
2021/12/11 04:32:38;;;;;;;;;6.50;5.00;;;;;;;;5027490;28;49793;-67
2021/12/11 04:35:04;;;;;;;;;4.50;4.50;;;;;;;;5027425;28;50338;-67
2021/12/11 04:37:31;;;;;;;;;4.00;4.00;;;;;;;;5030008;28;49762;-67
2021/12/11 04:40:02;;;;;;;;;2.75;2.25;;;;;;;;5012234;28;49615;-67
2021/12/11 04:45:15;;;;;;;;;4.50;4.50;;;;;;;;5030104;28;49733;-67
2021/12/11 04:47:51;;;;;;;;;9.25;3.50;;;;;;;;5030125;28;50160;-68
2021/12/11 04:50:29;;;;;;;;;2.50;2.50;;;;;;;;5029903;28;49632;-67
2021/12/11 04:52:55;;;;;;;;;5.00;5.00;;;;;;;;5030189;28;49596;-67
2021/12/11 05:03:32;;;;;;;;;2.50;2.50;;;;;;;;5030144;28;49946;-66
2021/12/11 05:06:24;;;;;;;;;3.25;3.25;;;;;;;;5029101;28;49780;-67
2021/12/11 05:11:34;;;;;;;;;2.00;2.00;;;;;;;;5029950;28;49812;-67
2021/12/11 05:14:00;;;;;;;;;2.00;1.00;;;;;;;;5029980;28;49742;-66
2021/12/11 05:16:25;;;;;;;;;8.25;4.50;;;;;;;;5029625;28;50236;-66
2021/12/11 05:18:50;;;;;;;;;6.00;3.25;;;;;;;;5029650;28;49613;-67
2021/12/11 05:21:17;;;;;;;;;2.00;2.00;;;;;;;;5029526;28;49743;-67
2021/12/11 05:23:43;;;;;;;;;2.00;2.00;;;;;;;;5029964;28;49817;-66
2021/12/11 05:26:08;;;;;;;;;5.00;5.00;;;;;;;;5029374;28;50473;-66
2021/12/11 05:28:34;;;;;;;;;5.00;2.75;;;;;;;;5029321;28;49905;-66
2021/12/11 05:31:00;;;;;;;;;3.25;3.25;;;;;;;;5029586;28;49673;-66
2021/12/11 05:33:26;;;;;;;;;5.00;4.25;;;;;;;;5029593;28;49659;-67
2021/12/11 05:35:51;;;;;;;;;5.75;3.50;;;;;;;;5029150;28;50645;-67
2021/12/11 05:38:18;;;;;;;;;1.50;1.50;;;;;;;;5029504;28;49701;-66
2021/12/11 05:40:45;;;;;;;;;8.25;5.00;;;;;;;;5029538;28;50099;-67
2021/12/11 05:43:11;;;;;;;;;5.75;4.75;;;;;;;;5029760;27;49834;-66
2021/12/11 05:45:37;;;;;;;;;5.50;5.00;;;;;;;;5029019;28;49960;-67
2021/12/11 05:48:02;;;;;;;;;8.25;6.00;;;;;;;;5029190;28;50025;-67
2021/12/11 05:50:33;;;;;;;;;3.75;2.50;;;;;;;;5029089;28;49755;-71
2021/12/11 05:52:58;;;;;;;;;4.75;4.75;;;;;;;;5029775;28;50020;-72
2021/12/11 05:55:27;;;;;;;;;10.25;8.00;;;;;;;;5029134;28;50528;-71
2021/12/11 05:57:56;;;;;;;;;4.00;4.00;;;;;;;;5029155;28;49767;-68
2021/12/11 06:00:25;;;;;;;;;8.00;8.00;;;;;;;;5029381;28;49671;-71
2021/12/11 06:02:51;;;;;;;;;6.25;6.25;;;;;;;;5029367;28;49601;-69
2021/12/11 06:05:16;;;;;;;;;0.50;0.50;;;;;;;;5028821;28;49788;-68
2021/12/11 06:07:43;;;;;;;;;4.25;4.25;;;;;;;;5011214;28;49657;-70
2021/12/11 06:10:10;;;;;;;;;6.00;6.00;;;;;;;;5029179;28;49686;-71
2021/12/11 06:12:36;;;;;;;;;5.00;4.50;;;;;;;;5029343;28;49752;-69
2021/12/11 06:15:03;;;;;;;;;5.00;5.00;;;;;;;;5028980;28;50048;-69
2021/12/11 06:17:29;;;;;;;;;5.00;4.25;;;;;;;;5029323;28;50192;-69
2021/12/11 06:19:56;;;;;;;;;5.00;2.00;;;;;;;;5028929;28;49653;-68
2021/12/11 06:22:24;;;;;;;;;5.00;5.00;;;;;;;;5029054;28;49644;-69
2021/12/11 06:24:50;;;;;;;;;4.00;4.00;;;;;;;;5028858;28;49764;-73
2021/12/11 06:27:16;;;;;;;;;8.75;6.25;;;;;;;;5028646;28;49925;-68
2021/12/11 06:29:41;;;;;;;;;9.50;5.25;;;;;;;;5028819;28;49711;-71
2021/12/11 06:32:06;;;;;;;;;4.50;3.75;;;;;;;;5029300;28;49761;-69
2021/12/11 06:34:34;;;;;;;;;8.75;6.25;;;;;;;;5028737;28;50339;-67
2021/12/11 06:37:00;;;;;;;;;10.50;6.25;;;;;;;;5028573;28;49811;-67
2021/12/11 06:39:26;;;;;;;;;4.25;4.25;;;;;;;;5010701;28;50474;-67
2021/12/11 06:41:54;;;;;;;;;4.50;4.25;;;;;;;;5029064;28;49713;-67
2021/12/11 06:44:19;;;;;;;;;5.50;5.00;;;;;;;;5028682;28;49588;-68
2021/12/11 06:46:45;;;;;;;;;5.50;5.00;;;;;;;;5028761;28;49579;-67
2021/12/11 06:49:11;;;;;;;;;5.50;5.50;;;;;;;;5028771;28;49943;-67
2021/12/11 06:51:37;;;;;;;;;5.50;5.00;;;;;;;;5028915;28;49718;-67
2021/12/11 06:54:05;;;;;;;;;8.50;5.75;;;;;;;;5028661;28;50363;-67
2021/12/11 06:56:30;;;;;;;;;5.25;5.25;;;;;;;;5028861;28;49914;-69
2021/12/11 06:58:57;;;;;;;;;5.25;5.00;;;;;;;;5027690;28;49725;-67
2021/12/11 07:01:23;;;;;;;;;6.00;4.00;;;;;;;;5028586;28;49733;-67
2021/12/11 07:03:49;;;;;;;;;4.50;4.50;;;;;;;;5028424;28;49896;-68
2021/12/11 07:06:15;;;;;;;;;8.00;6.00;;;;;;;;5028198;28;49784;-65
2021/12/11 07:08:41;;;;;;;;;4.50;4.00;;;;;;;;5028344;28;49639;-66
2021/12/11 07:11:08;;;;;;;;;9.50;8.50;;;;;;;;5028527;28;50069;-67
2021/12/11 07:13:33;;;;;;;;;6.00;5.25;;;;;;;;5028268;28;49720;-67
2021/12/11 07:15:59;;;;;;;;;4.75;2.50;;;;;;;;5028333;28;49791;-67
2021/12/11 07:18:25;;;;;;;;;8.75;5.25;;;;;;;;5028394;28;49624;-68
2021/12/11 07:20:51;;;;;;;;;6.00;4.25;;;;;;;;5028206;28;49699;-67
2021/12/11 07:23:16;;;;;;;;;2.00;2.00;;;;;;;;5028236;28;50544;-67
2021/12/11 07:26:00;;;;;;;;;7.50;7.50;;;;;;;;5028161;28;49761;-66
2021/12/11 07:28:25;;;;;;;;;6.50;6.50;;;;;;;;5027955;28;49887;-68
2021/12/11 07:30:52;;;;;;;;;7.25;5.00;;;;;;;;5028275;28;49836;-68
2021/12/11 07:33:18;;;;;;;;;7.50;7.50;;;;;;;;5027896;28;51053;-67
2021/12/11 07:35:44;;;;;;;;;6.00;6.00;;;;;;;;5027390;28;49826;-68
2021/12/11 07:38:09;;;;;;;;;5.50;5.50;;;;;;;;5028054;28;49939;-68
2021/12/11 07:40:36;;;;;;;;;1.50;1.50;;;;;;;;5030816;28;49745;-68
2021/12/11 07:43:03;;;;;;;;;4.75;4.75;;;;;;;;5042647;28;49865;-65
2021/12/11 07:45:28;;;;;;;;;9.75;9.00;;;;;;;;5046738;28;49740;-68
2021/12/11 07:47:54;;;;;;;;;9.25;5.50;;;;;;;;5048600;27;49765;-67
2021/12/11 07:50:24;;;;;;;;;8.50;6.75;;;;;;;;5110810;27;49826;-70
2021/12/11 07:52:49;;;;;;;;;6.75;6.75;;;;;;;;5049979;27;49889;-67
2021/12/11 07:55:15;;;;;;;;;7.75;5.75;;;;;;;;5047937;28;49632;-67
2021/12/11 07:57:40;;;;;;;;;8.25;8.25;;;;;;;;5047992;28;49697;-67
2021/12/11 08:00:07;;;;;;;;;10.50;5.75;;;;;;;;5048157;28;49573;-73
2021/12/11 08:02:32;;;;;;;;;7.75;7.25;;;;;;;;5047610;28;49886;-68
2021/12/11 08:04:57;;;;;;;;;8.75;5.00;;;;;;;;5047542;28;49630;-67
2021/12/11 08:07:23;;;;;;;;;7.50;7.50;;;;;;;;5047715;28;49557;-68
2021/12/11 08:09:48;;;;;;;;;6.50;6.50;;;;;;;;5046447;28;49590;-67
2021/12/11 08:12:13;;;;;;;;;10.25;9.75;;;;;;;;5047577;28;49669;-67
2021/12/11 08:14:38;;;;;;;;;10.00;9.25;;;;;;;;5050193;28;49718;-67
2021/12/11 08:17:06;;;;;;;;;9.75;8.00;;;;;;;;5047680;28;49795;-78
2021/12/11 08:19:32;;;;;;;;;13.75;10.50;;;;;;;;5047483;28;50030;-63
2021/12/11 08:22:00;;;;;;;;;12.75;10.00;;;;;;;;5047852;28;49819;-66
2021/12/11 08:24:27;;;;;;;;;12.75;12.75;;;;;;;;5047583;28;49797;-64
2021/12/11 08:26:54;;;;;;;;;8.25;7.25;;;;;;;;5047073;28;49635;-68
2021/12/11 08:29:22;;;;;;;;;12.25;11.00;;;;;;;;5047348;28;49766;-64
2021/12/11 08:31:49;;;;;;;;;12.25;9.25;;;;;;;;5046887;28;50552;-71
2021/12/11 08:34:14;;;;;;;;;13.00;11.25;;;;;;;;5047236;28;49620;-69
2021/12/11 08:36:40;;;;;;;;;12.75;10.25;;;;;;;;5046951;28;49731;-70
2021/12/11 08:39:06;;;;;;;;;11.00;10.50;;;;;;;;5047198;28;50002;-75
2021/12/11 08:41:32;;;;;;;;;14.75;13.00;;;;;;;;5047045;28;50447;-69
2021/12/11 08:44:03;;;;;;;;;17.50;15.25;;;;;;;;5047170;28;49956;-70
2021/12/11 08:46:29;;;;;;;;;14.75;12.75;;;;;;;;5047101;28;49715;-70
2021/12/11 08:48:55;;;;;;;;;10.25;8.75;;;;;;;;5047109;28;49544;-67
2021/12/11 08:51:30;;;;;;;;;11.50;11.50;;;;;;;;5046497;28;49900;-67
2021/12/11 08:53:56;;;;;;;;;20.25;15.00;;;;;;;;5046942;28;49687;-71
2021/12/11 08:56:22;;;;;;;;;11.50;11.50;;;;;;;;5046998;28;49602;-70
2021/12/11 08:58:49;;;;;;;;;14.00;14.00;;;;;;;;5046972;28;49943;-73
2021/12/11 09:01:24;;;;;;;;;14.50;10.00;;;;;;;;5046469;28;49946;-74
2021/12/11 09:03:59;;;;;;;;;15.75;11.00;;;;;;;;5047118;28;49966;-74
2021/12/11 09:06:25;;;;;;;;;13.00;10.00;;;;;;;;5046460;28;49720;-78
2021/12/11 09:09:11;;;;;;;;;13.25;10.00;;;;;;;;5047746;28;49968;-73
2021/12/11 09:12:02;;;;;;;;;10.25;10.25;;;;;;;;5046408;28;49738;-75
2021/12/11 09:14:30;;;;;;;;;14.00;10.25;;;;;;;;5042435;28;49994;-72
2021/12/11 09:17:03;;;;;;;;;14.25;10.50;;;;;;;;5048024;28;49860;-69
2021/12/11 09:19:39;;;;;;;;;16.75;11.50;;;;;;;;5057665;28;49739;-64
2021/12/11 09:22:07;;;;;;;;;15.75;11.75;;;;;;;;5068796;28;49915;-69
2021/12/11 09:24:37;;;;;;;;;13.75;11.75;;;;;;;;5134029;27;49672;-71
2021/12/11 09:27:10;;;;;;;;;13.75;11.00;;;;;;;;5049494;28;49582;-70
2021/12/11 09:29:37;;;;;;;;;12.25;12.25;;;;;;;;5049974;28;49554;-73
2021/12/11 09:32:13;;;;;;;;;10.25;9.75;;;;;;;;5049099;28;49595;-67
2021/12/11 09:34:52;;;;;;;;;14.00;11.00;;;;;;;;5068555;27;49879;-65
2021/12/11 09:37:17;;;;;;;;;12.50;12.50;;;;;;;;5033642;28;49928;-68
2021/12/11 09:40:34;;;;;;;;;16.75;12.25;;;;;6.84;67.42;101773.13;5126938;27;49739;-69
2021/12/11 09:43:00;;;;;;;;;17.00;16.00;;;;;6.95;66.61;101774.59;5102067;27;49802;-70
2021/12/11 09:45:29;;;;;;;;;18.75;12.00;;;;;6.55;66.68;101698.53;5086719;27;50184;-73
2021/12/11 09:48:00;;;;;;;;;14.25;12.00;;;;;6.19;66.41;101659.31;5099708;27;51018;-73
2021/12/11 09:50:32;;;;;;;;;15.50;13.25;;;;;6.73;67.09;101711.66;5095890;27;49910;-69
2021/12/11 09:52:58;;;;;;;;;16.50;16.00;;;;;6.58;66.77;101711.78;5096007;27;49745;-73
2021/12/11 09:55:29;;;;;;;;;15.00;15.00;;;;;6.73;66.06;101712.53;5087390;27;49796;-72
2021/12/11 09:58:01;;;;;;;;;18.00;16.50;;;;;6.65;66.48;101703.41;5086169;27;51816;-70
2021/12/11 10:00:50;;;;;;;;;18.25;14.00;;;;;6.11;66.18;101607.59;5103698;27;49885;-72
2021/12/11 10:03:20;;;;;;;;;25.00;14.75;;;;;7.23;65.57;101789.91;5094320;27;49876;-71
2021/12/11 10:06:00;;;;;;;;;17.00;12.75;;;;;7.30;66.11;101799.88;5104164;27;49906;-69
2021/12/11 10:08:41;;;;;;;;;20.25;17.25;;;;;6.91;65.71;101728.25;5088363;27;49674;-73
2021/12/11 10:11:28;;;;;;;;;20.50;19.50;;;;;7.22;65.76;101782.91;5099655;27;49862;-76
2021/12/11 10:14:09;;;;;;;;;17.75;17.50;;;;;6.72;66.26;101695.09;5112940;27;49640;-78
2021/12/11 10:16:40;;;;;;;;;18.50;16.25;;;;;7.00;66.10;101730.44;5121208;27;49609;-76
2021/12/11 10:19:10;;;;;;;;;20.00;12.75;;;;;7.26;65.65;101771.81;5112217;27;51730;-76
2021/12/11 10:21:46;;;;;;;;;16.25;15.75;;;;;7.16;65.45;101731.28;5114806;27;49869;-77
2021/12/11 10:24:16;;;;;;;;;15.00;11.25;;;;;7.63;65.39;101818.06;5113254;27;49950;-75
2021/12/11 10:26:42;;;;;;;;;12.00;12.00;;;;;7.69;65.33;101805.28;5117413;27;49669;-78
2021/12/11 10:29:12;;;;;;;;;16.25;13.75;;;;;7.46;65.72;101784.16;5119763;27;50699;-76
2021/12/11 10:31:43;;;;;;;;;15.50;12.00;;;;;6.76;65.53;101663.13;5107462;27;49396;-76
2021/12/11 10:34:14;;;;;;;;;14.75;11.25;;;;;7.45;64.72;101735.34;5122657;27;49494;-76
2021/12/11 10:36:46;;;;;;;;;11.75;10.25;;;;;7.90;64.58;101803.69;5126433;27;49730;-72
2021/12/11 10:39:14;;;;;;;;;14.00;10.50;;;;;7.96;64.19;101811.84;5115203;27;49953;-73
2021/12/11 10:41:41;;;;;;;;;7.00;7.00;;;;;7.98;63.86;101806.69;5105569;27;49419;-76
2021/12/11 10:44:11;;;;;;;;;9.25;7.50;;;;;8.08;64.97;101811.53;5104336;27;49307;-75
2021/12/11 10:46:47;;;;;;;;;9.75;7.25;;;;;8.00;64.55;101799.81;5103346;27;49460;-75
2021/12/11 10:49:14;;;;;;;;;8.75;8.00;;;;;7.84;63.96;101765.94;5104478;27;49464;-74
2021/12/11 10:51:47;;;;;;;;;8.50;6.75;;;;;8.13;63.64;101812.66;5078231;27;49531;-76
2021/12/11 10:54:15;;;;;;;;;5.25;5.00;;;;;8.11;63.17;101811.69;5078976;27;49626;-69
2021/12/11 10:56:43;;;;;;;;;6.00;6.00;;;;;8.08;62.13;101818.47;5077606;27;49988;-69
2021/12/11 10:59:17;;;;;;;;;7.75;5.25;;;;;8.04;63.28;101810.50;5088781;27;51463;-74
2021/12/11 11:01:49;;;;;;;;;5.75;3.00;;;;;7.77;62.95;101785.66;5090053;27;49491;-76
2021/12/11 11:04:23;;;;;;;;;7.00;7.00;;;;;8.03;63.35;101820.91;5090318;27;49731;-74
2021/12/11 11:06:49;;;;;;;;;5.50;5.50;;;;;8.07;63.52;101821.94;5091342;27;49583;-74
2021/12/11 11:09:17;;;;;;;;;8.75;3.00;;;;;7.97;62.79;101792.72;5089761;27;50030;-79
2021/12/11 11:11:43;;;;;;;;;6.50;5.25;;;;;8.18;63.60;101818.09;5082942;27;49750;-72
2021/12/11 11:14:10;;;;;;;;;11.75;11.25;;;;;8.04;63.80;101799.16;5080007;27;49829;-72
2021/12/11 11:16:39;;;;;;;;;9.75;7.00;;;;;8.18;64.38;101819.00;5087854;27;49571;-71
2021/12/11 11:19:06;;;;;;;;;6.50;6.50;;;;;8.05;63.16;101787.84;5089944;28;50072;-79
2021/12/11 11:21:41;;;;;;;;;5.00;5.00;;;;;8.25;63.59;101799.25;5105620;27;49569;-73
2021/12/11 11:24:09;;;;;;;;;5.50;4.00;;;;;8.13;63.50;101765.59;5090266;27;49423;-74
2021/12/11 11:26:37;;;;;;;;;11.50;7.50;;;;;8.35;62.99;101777.06;5090454;27;49332;-77
2021/12/11 11:29:07;;;;;;;;;5.00;3.00;;;;;8.55;63.29;101797.19;5105731;27;51246;-79
2021/12/11 11:31:36;;;;;;;;;7.75;6.00;;;;;8.60;62.13;101793.06;5090726;28;49328;-76
2021/12/11 11:34:09;;;;;;;;;6.25;4.50;;;;;8.62;62.00;101780.94;5090423;27;49331;-77
2021/12/11 11:36:36;;;;;;;;;6.00;5.00;;;;;8.77;62.51;101801.66;5099243;27;49775;-80
2021/12/11 11:39:10;;;;;;;;;6.75;4.75;;;;;8.79;62.17;101789.56;5077300;28;50153;-75
2021/12/11 11:41:49;;;;;;;;;5.75;5.00;;;;;8.74;61.57;101768.38;5077977;27;49625;-79
2021/12/11 11:44:17;;;;;;;;;8.50;5.50;;;;;8.47;61.08;101726.16;5094273;27;49869;-77
2021/12/11 11:46:43;;;;;;;;;3.75;3.75;;;;;9.03;61.29;101822.03;5080370;28;49526;-77
2021/12/11 11:49:12;;;;;;;;;5.50;5.50;;;;;9.04;61.88;101820.31;5078148;27;49803;-73
2021/12/11 11:51:43;;;;;;;;;7.50;5.00;;;;;9.07;61.17;101829.22;5075795;28;49775;-73
2021/12/11 11:54:11;;;;;;;;;5.00;3.00;;;;;8.92;60.94;101796.22;5071568;27;49837;-72
2021/12/11 11:56:42;;;;;;;;;8.00;7.00;;;;;8.99;61.10;101801.78;5069738;27;49829;-72
2021/12/11 11:59:10;;;;;;;;;7.25;7.25;;;;;9.03;61.66;101806.31;5069550;27;50498;-77
2021/12/11 12:01:40;;;;;;;;;8.25;7.25;;;;;8.98;61.71;101789.53;5069404;27;49740;-75
2021/12/11 12:04:11;;;;;;;;;14.00;11.75;;;;;8.88;61.18;101769.91;5069840;27;49951;-77
2021/12/11 12:06:38;;;;;;;;;8.75;8.75;;;;;9.06;60.76;101788.09;5069944;27;49805;-74
2021/12/11 12:09:08;;;;;;;;;10.75;9.00;;;;;9.34;60.77;101826.88;5069944;27;49755;-74
2021/12/11 12:11:37;;;;;;;;;9.75;9.75;;;;;9.43;61.07;101819.41;5068389;27;49824;-75
2021/12/11 12:14:12;;;;;;;;;7.75;7.00;;;;;9.46;61.15;101811.69;5071957;27;49863;-74
2021/12/11 12:16:40;;;;;;;;;7.75;7.50;;;;;9.52;60.33;101816.28;5072070;27;50154;-72
2021/12/11 12:19:06;;;;;;;;;9.50;7.50;;;;;9.49;60.87;101797.81;5071223;27;51521;-76
2021/12/11 12:21:36;;;;;;;;;8.00;8.00;;;;;9.67;60.48;101823.91;5071316;27;49775;-75
2021/12/11 12:24:02;;;;;;;;;10.75;7.50;;;;;9.47;60.58;101796.84;5070393;27;50043;-73
2021/12/11 12:26:37;;;;;;;;;10.50;8.50;;;;;9.52;60.21;101803.16;5072419;27;49786;-85
2021/12/11 12:29:05;;;;;;;;;12.25;9.75;;;;;9.57;59.59;101812.13;5070939;27;51593;-81
2021/12/11 12:31:35;;;;;;;;;8.25;7.00;;;;;9.17;60.19;101754.53;5071904;27;49627;-74
2021/12/11 12:34:02;;;;;;;;;8.25;8.25;;;;;9.71;59.93;101867.75;5070887;27;49843;-79
2021/12/11 12:36:27;;;;;;;;;7.00;5.50;;;;;9.35;60.33;101810.31;5072597;27;49599;-77
2021/12/11 12:38:53;;;;;;;;;7.75;7.00;;;;;9.45;60.18;101832.56;5069927;28;49918;-78
2021/12/11 12:41:28;;;;;;;;;12.00;8.25;;;;;9.26;60.07;101809.03;5071909;28;49795;-76
2021/12/11 12:44:17;;;;;;;;;11.00;7.00;;;;;9.29;60.40;101796.06;5071763;28;49639;-68
2021/12/11 12:47:07;;;;;;;;;12.00;8.00;;;;;9.52;60.68;101829.38;5072048;27;50256;-81
2021/12/11 12:49:36;;;;;;;;;8.00;7.00;;;;;9.41;60.78;101786.09;5070858;27;52277;-81
2021/12/11 12:52:09;;;;;;;;;11.25;8.00;;;;;9.70;60.01;101830.16;5086981;27;49681;-78
2021/12/11 12:54:34;;;;;;;;;8.00;6.25;;;;;9.88;59.80;101851.00;5071630;27;49795;-81
2021/12/11 12:57:12;;;;;;;;;7.50;7.00;;;;;9.73;59.66;101813.63;5087164;27;50190;-73
2021/12/11 12:59:41;;;;;;;;;7.00;7.00;;;;;9.85;59.63;101847.34;5071015;27;49612;-70
2021/12/11 13:02:12;;;;;;;;;9.25;8.25;;;;;10.00;59.57;101864.59;5071144;27;49883;-71
2021/12/11 13:04:42;;;;;;;;;9.50;9.50;;;;;10.01;60.21;101863.75;5071196;27;49580;-68
2021/12/11 13:07:12;;;;;;;;;11.75;7.25;;;;;10.02;58.69;101864.66;5071085;27;49741;-69
2021/12/11 13:09:42;;;;;;;;;8.75;7.00;;;;;9.85;59.20;101815.88;5071068;27;49801;-68
2021/12/11 13:12:33;;;;;;;;;14.50;9.75;;;;;10.02;60.29;101852.44;5071088;27;49664;-69
2021/12/11 13:15:06;;;;;;;;;8.25;7.00;;;;;10.07;59.46;101844.75;5070524;27;49681;-68
2021/12/11 13:17:37;;;;;;;;;9.50;7.25;;;;;10.14;59.60;101844.19;5071126;28;49553;-72
2021/12/11 13:20:10;;;;;;;;;12.00;8.75;;;;;10.16;59.34;101844.22;5070838;28;49955;-68
2021/12/11 13:22:39;;;;;;;;;11.25;8.75;;;;;10.11;59.04;101825.66;5070631;27;49772;-72
2021/12/11 13:25:20;;;;;;;;;9.75;9.25;;;;;10.18;59.64;101834.69;5071062;28;49729;-69
2021/12/11 13:27:48;;;;;;;;;7.50;7.00;;;;;10.01;59.68;101813.91;5070951;27;49648;-67
2021/12/11 13:30:28;;;;;;;;;9.75;8.50;;;;;10.08;59.97;101828.19;5070713;27;50635;-67
2021/12/11 13:32:54;;;;;;;;;10.00;9.25;;;;;10.07;59.22;101813.28;5070616;27;49856;-70
2021/12/11 13:35:26;;;;;;;;;9.25;8.00;;;;;10.26;59.06;101838.53;5070335;27;49732;-69
2021/12/11 13:37:52;;;;;;;;;8.50;6.00;;;;;10.20;59.72;101827.75;5070605;27;49787;-71
2021/12/11 13:40:23;;;;;;;;;5.75;5.75;;;;;10.25;59.36;101839.38;5070187;27;51268;-79
2021/12/11 13:42:49;;;;;;;;;6.75;5.00;;;;;9.79;58.28;101757.94;5070343;27;49778;-73
2021/12/11 13:45:24;;;;;;;;;12.50;9.75;;;;;10.30;58.90;101843.06;5069013;28;49759;-66
2021/12/11 13:47:51;;;;;;;;;8.75;8.75;;;;;10.34;58.85;101852.88;5070560;27;49778;-78
2021/12/11 13:50:33;;;;;;;;;6.00;4.00;;;;;9.97;58.23;101798.91;5070265;27;49647;-74
2021/12/11 13:53:00;;;;;;;;;8.00;6.25;;;;;10.30;58.55;101862.34;5070113;27;49593;-76